Time;durP1;ratioP1;P1;durP2;ratioP2;P2;SDS_P1;SDS_P2;PMS_P1;PMS_P2;Temp;Humidity;BMP_temperature;BMP_pressure;BME280_temperature;BME280_humidity;BME280_pressure;Samples;Min_cycle;Max_cycle;Signal;HPM_P1;HPM_P2
2021/05/31 00:01:37;;;;;;;5.97;2.80;;;9.10;99.90;;;;;;5090517;28;20428;-71
2021/05/31 00:04:04;;;;;;;4.03;3.37;;;9.10;99.90;;;;;;5090423;28;21017;-72
2021/05/31 00:06:40;;;;;;;4.50;3.40;;;9.00;99.90;;;;;;5050474;28;20584;-72
2021/05/31 00:09:08;;;;;;;4.03;3.40;;;9.00;99.90;;;;;;5050449;28;20466;-71
2021/05/31 00:11:35;;;;;;;4.87;3.10;;;9.00;99.90;;;;;;5050323;28;20435;-72
2021/05/31 00:14:02;;;;;;;13.80;3.03;;;8.90;99.90;;;;;;5050158;28;20504;-72
2021/05/31 00:16:29;;;;;;;4.17;3.77;;;8.90;99.90;;;;;;5069808;28;20814;-71
2021/05/31 00:18:55;;;;;;;6.17;3.30;;;8.90;99.90;;;;;;5070100;28;20768;-73
2021/05/31 00:21:22;;;;;;;2.80;2.43;;;8.90;99.90;;;;;;5070451;28;20430;-72
2021/05/31 00:23:50;;;;;;;3.70;3.27;;;8.80;99.90;;;;;;5070236;28;20434;-71
2021/05/31 00:26:18;;;;;;;4.70;3.43;;;8.70;99.90;;;;;;5070050;28;20471;-71
2021/05/31 00:28:45;;;;;;;7.40;3.40;;;8.70;99.90;;;;;;5070195;28;20448;-72
2021/05/31 00:31:12;;;;;;;5.67;3.20;;;8.70;99.90;;;;;;5072001;28;20441;-71
2021/05/31 00:33:40;;;;;;;4.13;3.40;;;8.70;99.90;;;;;;5073438;28;20502;-71
2021/05/31 00:36:07;;;;;;;7.77;3.30;;;8.70;99.90;;;;;;5074598;28;20437;-72
2021/05/31 00:38:34;;;;;;;6.70;3.00;;;8.60;99.90;;;;;;5074118;28;20524;-71
2021/05/31 00:41:03;;;;;;;4.27;3.10;;;8.50;99.90;;;;;;5073878;28;20433;-72
2021/05/31 00:43:33;;;;;;;8.23;3.20;;;8.40;99.90;;;;;;5073636;28;20481;-71
2021/05/31 00:46:01;;;;;;;4.80;3.03;;;8.40;99.90;;;;;;5074094;28;20506;-71
2021/05/31 00:48:27;;;;;;;3.40;2.90;;;8.30;99.90;;;;;;5073452;28;20421;-71
2021/05/31 00:50:55;;;;;;;5.40;3.47;;;8.30;99.90;;;;;;5073712;28;20492;-71
2021/05/31 00:53:22;;;;;;;4.03;3.00;;;8.20;99.90;;;;;;5073399;28;20938;-71
2021/05/31 00:55:49;;;;;;;5.70;3.87;;;8.20;99.90;;;;;;5073875;28;20810;-72
2021/05/31 00:58:17;;;;;;;5.47;4.00;;;8.20;99.90;;;;;;5073483;28;20537;-71
2021/05/31 01:00:45;;;;;;;4.73;2.43;;;8.30;99.90;;;;;;5073516;28;20433;-72
2021/05/31 01:03:12;;;;;;;5.07;3.17;;;8.20;99.90;;;;;;5073011;28;20445;-72
2021/05/31 01:05:40;;;;;;;5.77;3.33;;;8.10;99.90;;;;;;5073433;28;20434;-71
2021/05/31 01:08:12;;;;;;;5.10;3.27;;;8.00;99.90;;;;;;5073637;28;20587;-71
2021/05/31 01:10:47;;;;;;;2.80;2.50;;;8.00;99.90;;;;;;5073268;28;21012;-71
2021/05/31 01:13:18;;;;;;;7.90;3.57;;;8.00;99.90;;;;;;5073271;28;20482;-72
2021/05/31 01:15:48;;;;;;;3.90;3.13;;;7.90;99.90;;;;;;5073406;28;20456;-71
2021/05/31 01:18:19;;;;;;;3.93;3.23;;;7.80;99.90;;;;;;5072723;28;20545;-71
2021/05/31 01:21:10;;;;;;;3.70;3.23;;;7.90;99.90;;;;;;5073149;28;20441;-71
2021/05/31 01:23:40;;;;;;;5.37;3.20;;;7.80;99.90;;;;;;5072879;28;20426;-71
2021/05/31 01:26:12;;;;;;;5.23;3.07;;;7.80;99.90;;;;;;5073206;28;20509;-71
2021/05/31 01:28:53;;;;;;;3.53;2.90;;;7.80;99.90;;;;;;5072975;28;20432;-72
2021/05/31 01:31:26;;;;;;;3.70;2.80;;;7.70;99.90;;;;;;5073141;28;20433;-72
2021/05/31 01:33:55;;;;;;;4.50;3.27;;;7.70;99.90;;;;;;5072662;28;20476;-71
2021/05/31 01:36:24;;;;;;;6.67;3.53;;;7.70;99.90;;;;;;5072885;28;20446;-72
2021/05/31 01:38:52;;;;;;;5.13;3.40;;;7.60;99.90;;;;;;5072778;28;20480;-72
2021/05/31 01:41:20;;;;;;;4.03;3.07;;;7.50;99.90;;;;;;5072808;28;20438;-72
2021/05/31 01:43:49;;;;;;;4.20;2.60;;;7.50;99.90;;;;;;5071736;28;20429;-72
2021/05/31 01:46:16;;;;;;;5.20;3.10;;;7.40;99.90;;;;;;5072782;28;20469;-71
2021/05/31 01:48:44;;;;;;;6.40;3.00;;;7.40;99.90;;;;;;5072764;28;20526;-71
2021/05/31 01:51:11;;;;;;;5.90;3.47;;;7.40;99.90;;;;;;5072407;28;20465;-72
2021/05/31 01:53:39;;;;;;;4.33;2.43;;;7.40;99.90;;;;;;5072389;28;20482;-71
2021/05/31 01:56:06;;;;;;;4.37;3.03;;;7.40;99.90;;;;;;5072518;28;20430;-72
2021/05/31 01:58:32;;;;;;;5.13;3.33;;;7.40;99.90;;;;;;5072706;28;20791;-72
2021/05/31 02:01:01;;;;;;;4.17;3.40;;;7.40;99.90;;;;;;5072620;28;20437;-72
2021/05/31 02:03:29;;;;;;;4.20;3.07;;;7.40;99.90;;;;;;5072136;28;20426;-73
2021/05/31 02:05:56;;;;;;;5.27;3.20;;;7.30;99.90;;;;;;5072385;28;20511;-71
2021/05/31 02:08:22;;;;;;;7.30;3.13;;;7.20;99.90;;;;;;5072606;28;20473;-71
2021/05/31 02:10:49;;;;;;;5.87;3.23;;;7.20;99.90;;;;;;5072073;28;20477;-71
2021/05/31 02:13:16;;;;;;;6.03;3.47;;;7.20;99.90;;;;;;5072141;28;20448;-71
2021/05/31 02:15:55;;;;;;;3.67;2.90;;;7.10;99.90;;;;;;5072199;28;21064;-72
2021/05/31 02:18:26;;;;;;;7.90;3.37;;;7.00;99.90;;;;;;5072173;28;20496;-70
2021/05/31 02:20:57;;;;;;;3.13;2.83;;;7.00;99.90;;;;;;5071965;28;20442;-72
2021/05/31 02:23:26;;;;;;;4.00;3.07;;;7.00;99.90;;;;;;5071853;28;20440;-71
2021/05/31 02:25:52;;;;;;;9.17;3.30;;;7.00;99.90;;;;;;5071960;28;20426;-71
2021/05/31 02:28:19;;;;;;;4.17;2.73;;;7.00;99.90;;;;;;5071771;28;20468;-72
2021/05/31 02:30:46;;;;;;;5.03;2.70;;;6.90;99.90;;;;;;5071661;28;20865;-71
2021/05/31 02:33:13;;;;;;;11.03;3.67;;;6.90;99.90;;;;;;5071553;28;20516;-71
2021/05/31 02:35:41;;;;;;;3.13;2.80;;;6.80;99.90;;;;;;5071652;28;20441;-72
2021/05/31 02:38:09;;;;;;;3.40;2.90;;;6.80;99.90;;;;;;5071698;28;20931;-71
2021/05/31 02:40:37;;;;;;;4.60;3.07;;;6.80;99.90;;;;;;5071564;28;20430;-71
2021/05/31 02:43:06;;;;;;;5.57;2.77;;;6.80;99.90;;;;;;5071628;28;20505;-72
2021/05/31 02:45:33;;;;;;;5.40;3.33;;;6.80;99.90;;;;;;5071500;28;20436;-71
2021/05/31 02:48:00;;;;;;;6.40;4.13;;;6.80;99.90;;;;;;5071425;28;20961;-73
2021/05/31 02:50:27;;;;;;;3.60;3.03;;;6.70;99.90;;;;;;5071175;28;20479;-71
2021/05/31 02:52:56;;;;;;;5.00;2.93;;;6.70;99.90;;;;;;5071626;28;20942;-71
2021/05/31 02:55:24;;;;;;;6.07;3.87;;;6.70;99.90;;;;;;5071444;28;20490;-72
2021/05/31 02:57:51;;;;;;;5.03;3.13;;;6.60;99.90;;;;;;5071310;28;20542;-72
2021/05/31 03:00:20;;;;;;;3.47;2.37;;;6.60;99.90;;;;;;5071134;28;20516;-72
2021/05/31 03:02:47;;;;;;;3.20;2.90;;;6.50;99.90;;;;;;5071123;28;20514;-72
2021/05/31 03:05:17;;;;;;;5.77;3.43;;;6.50;99.90;;;;;;5070890;28;20520;-71
2021/05/31 03:07:44;;;;;;;4.27;3.57;;;6.50;99.90;;;;;;5070948;28;20564;-72
2021/05/31 03:10:13;;;;;;;4.70;3.43;;;6.50;99.90;;;;;;5071040;28;20466;-71
2021/05/31 03:12:40;;;;;;;6.70;3.90;;;6.50;99.90;;;;;;5070875;28;20495;-71
2021/05/31 03:15:10;;;;;;;3.40;3.10;;;6.50;99.90;;;;;;5070801;28;20442;-71
2021/05/31 03:17:37;;;;;;;5.17;2.83;;;6.50;99.90;;;;;;5071272;28;20445;-71
2021/05/31 03:20:06;;;;;;;11.67;3.50;;;6.60;99.90;;;;;;5070785;28;20481;-71
2021/05/31 03:22:33;;;;;;;4.80;3.50;;;6.60;99.90;;;;;;5070867;28;20422;-72
2021/05/31 03:25:00;;;;;;;3.93;3.10;;;6.60;99.90;;;;;;5070874;28;20436;-71
2021/05/31 03:27:28;;;;;;;4.13;3.13;;;6.70;99.90;;;;;;5070809;28;20441;-72
2021/05/31 03:29:55;;;;;;;6.47;3.87;;;6.70;99.90;;;;;;5070859;28;20474;-71
2021/05/31 03:32:21;;;;;;;3.40;2.77;;;6.80;99.90;;;;;;5070885;28;20426;-71
2021/05/31 03:34:48;;;;;;;4.63;3.40;;;6.90;99.90;;;;;;5070545;28;20852;-71
2021/05/31 03:37:15;;;;;;;5.43;3.40;;;6.90;99.90;;;;;;5070705;28;20449;-73
2021/05/31 03:39:42;;;;;;;5.10;3.60;;;6.80;99.90;;;;;;5070732;28;20444;-72
2021/05/31 03:42:08;;;;;;;6.47;3.83;;;6.80;99.90;;;;;;5070905;28;20787;-72
2021/05/31 03:44:38;;;;;;;7.40;3.17;;;6.80;99.90;;;;;;5070711;28;20439;-71
2021/05/31 03:47:05;;;;;;;5.23;3.00;;;6.80;99.90;;;;;;5070889;28;20446;-72
2021/05/31 03:49:31;;;;;;;6.23;3.80;;;6.80;99.90;;;;;;5070544;28;20469;-71
2021/05/31 03:51:58;;;;;;;4.67;3.47;;;6.80;99.90;;;;;;5070671;28;20448;-72
2021/05/31 03:54:25;;;;;;;6.20;3.83;;;6.70;99.90;;;;;;5070409;28;20422;-72
2021/05/31 03:56:51;;;;;;;10.50;4.03;;;6.80;99.90;;;;;;5070654;28;20553;-72
2021/05/31 03:59:19;;;;;;;3.83;3.00;;;6.70;99.90;;;;;;5070514;28;20471;-71
2021/05/31 04:01:48;;;;;;;3.53;2.77;;;6.70;99.90;;;;;;5070579;28;20587;-72
2021/05/31 04:04:15;;;;;;;6.57;3.30;;;6.70;99.90;;;;;;5070110;28;20438;-71
2021/05/31 04:07:00;;;;;;;3.50;2.97;;;6.70;99.90;;;;;;5073149;28;20457;-71
2021/05/31 04:12:11;;;;;;;9.00;2.63;;;6.60;99.90;;;;;;5074726;28;20409;-71
2021/05/31 04:14:38;;;;;;;8.60;4.30;;;6.70;99.90;;;;;;5074307;28;20430;-71
2021/05/31 04:17:06;;;;;;;7.60;3.67;;;6.60;99.90;;;;;;5074415;28;20442;-71
2021/05/31 04:19:33;;;;;;;3.57;3.20;;;6.60;99.90;;;;;;5074078;28;20521;-72
2021/05/31 04:21:59;;;;;;;5.00;3.47;;;6.70;99.90;;;;;;5074301;28;20505;-71
2021/05/31 04:24:26;;;;;;;4.60;3.93;;;6.60;99.90;;;;;;5074150;28;20839;-72
2021/05/31 04:26:53;;;;;;;9.73;4.27;;;6.60;99.90;;;;;;5074406;28;20485;-72
2021/05/31 04:29:20;;;;;;;4.43;3.27;;;6.60;99.90;;;;;;5074093;28;20422;-71
2021/05/31 04:31:46;;;;;;;5.80;3.77;;;6.60;99.90;;;;;;5074184;28;20510;-72
2021/05/31 04:34:14;;;;;;;5.50;3.93;;;6.70;99.90;;;;;;5073453;28;20454;-71
2021/05/31 04:36:43;;;;;;;9.10;4.13;;;6.70;99.90;;;;;;5074217;28;20988;-71
2021/05/31 04:39:09;;;;;;;7.23;4.20;;;6.70;99.90;;;;;;5074226;28;20906;-70
2021/05/31 04:41:38;;;;;;;4.17;3.77;;;6.70;99.90;;;;;;5074212;28;20429;-72
2021/05/31 04:44:06;;;;;;;4.33;3.03;;;6.70;99.90;;;;;;5073731;28;20880;-71
2021/05/31 04:46:33;;;;;;;5.70;3.30;;;6.70;99.90;;;;;;5073684;28;20462;-72
2021/05/31 04:49:01;;;;;;;5.57;3.77;;;6.80;99.90;;;;;;5073872;28;20439;-71
2021/05/31 04:51:29;;;;;;;9.77;3.47;;;6.80;99.90;;;;;;5073662;28;20477;-72
2021/05/31 04:53:57;;;;;;;11.87;5.13;;;6.80;99.90;;;;;;5073442;28;20490;-72
2021/05/31 04:56:24;;;;;;;10.63;3.60;;;6.90;99.90;;;;;;5073933;28;20454;-71
2021/05/31 04:58:53;;;;;;;4.60;3.33;;;6.80;99.90;;;;;;5073616;28;20434;-72
2021/05/31 05:01:20;;;;;;;7.50;3.30;;;6.80;99.90;;;;;;5073572;28;20425;-72
2021/05/31 05:03:47;;;;;;;4.30;2.90;;;6.90;99.90;;;;;;5073454;28;20815;-73
2021/05/31 05:06:14;;;;;;;7.13;4.40;;;7.00;99.90;;;;;;5073271;28;21009;-73
2021/05/31 05:08:42;;;;;;;7.50;6.20;;;7.10;99.90;;;;;;5073434;28;21024;-72
2021/05/31 05:11:09;;;;;;;11.13;4.30;;;7.10;99.90;;;;;;5073413;28;21160;-72
2021/05/31 05:13:35;;;;;;;35.17;16.17;;;7.20;99.90;;;;;;5072943;28;20947;-71
2021/05/31 05:16:02;;;;;;;8.23;5.30;;;7.30;99.90;;;;;;5073304;28;20437;-69
2021/05/31 05:18:29;;;;;;;10.23;6.20;;;7.40;99.90;;;;;;5071971;28;20494;-70
2021/05/31 05:20:55;;;;;;;5.50;4.00;;;7.40;99.90;;;;;;5072976;28;20436;-72
2021/05/31 05:23:22;;;;;;;33.93;13.33;;;7.50;99.90;;;;;;5073092;28;20459;-71
2021/05/31 05:25:50;;;;;;;6.20;4.57;;;7.50;99.90;;;;;;5073449;28;20845;-70
2021/05/31 05:28:17;;;;;;;6.63;4.00;;;7.60;99.90;;;;;;5073018;28;20446;-70
2021/05/31 05:30:44;;;;;;;9.70;4.80;;;7.60;99.90;;;;;;5073032;28;20477;-71
2021/05/31 05:33:10;;;;;;;5.47;4.10;;;7.70;99.90;;;;;;5072709;28;20510;-71
2021/05/31 05:35:40;;;;;;;5.30;3.70;;;7.80;99.90;;;;;;5072914;28;20506;-70
2021/05/31 05:38:26;;;;;;;10.70;5.30;;;7.80;99.90;;;;;;5072849;28;20450;-71
2021/05/31 05:43:45;;;;;;;8.47;4.90;;;8.00;99.90;;;;;;5070804;28;20459;-70
2021/05/31 05:46:32;;;;;;;7.47;5.30;;;8.10;99.90;;;;;;5072749;28;20924;-71
2021/05/31 05:48:59;;;;;;;5.53;3.80;;;8.20;99.90;;;;;;5072505;28;20422;-72
2021/05/31 05:51:26;;;;;;;6.07;3.60;;;8.40;99.90;;;;;;5072495;28;20477;-71
2021/05/31 05:53:52;;;;;;;3.40;2.97;;;8.40;99.90;;;;;;5072514;28;20498;-71
2021/05/31 05:56:22;;;;;;;5.10;3.80;;;8.60;99.90;;;;;;5072561;28;20450;-71
2021/05/31 05:58:51;;;;;;;6.73;3.73;;;8.70;99.90;;;;;;5072477;28;20440;-72
2021/05/31 06:01:19;;;;;;;5.67;3.70;;;8.80;99.90;;;;;;5072277;28;20426;-72
2021/05/31 06:03:47;;;;;;;4.93;3.80;;;8.80;99.90;;;;;;5072393;28;20545;-72
2021/05/31 06:06:14;;;;;;;4.80;3.00;;;9.00;99.90;;;;;;5071931;28;20445;-71
2021/05/31 06:08:41;;;;;;;9.13;4.17;;;9.10;99.90;;;;;;5072517;28;20438;-71
2021/05/31 06:11:07;;;;;;;11.90;4.23;;;9.10;99.90;;;;;;5072072;28;20473;-71
2021/05/31 06:13:36;;;;;;;7.13;4.20;;;9.20;99.90;;;;;;5072027;28;20422;-72
2021/05/31 06:16:03;;;;;;;7.77;4.00;;;9.30;99.90;;;;;;5072015;28;20445;-73
2021/05/31 06:18:30;;;;;;;4.97;3.60;;;9.40;99.90;;;;;;5072502;28;20441;-71
2021/05/31 06:20:57;;;;;;;7.00;3.63;;;9.50;99.90;;;;;;5071907;28;20461;-71
2021/05/31 06:23:24;;;;;;;7.37;4.30;;;9.70;99.90;;;;;;5071945;28;20951;-71
2021/05/31 06:25:51;;;;;;;5.40;2.63;;;9.80;99.90;;;;;;5071983;28;21157;-72
2021/05/31 06:28:18;;;;;;;4.30;3.33;;;9.90;99.90;;;;;;5071803;28;20812;-71
2021/05/31 06:30:46;;;;;;;4.73;4.20;;;10.10;99.90;;;;;;5071646;28;20461;-71
2021/05/31 06:33:13;;;;;;;7.03;3.57;;;10.10;99.90;;;;;;5071809;28;20458;-72
2021/05/31 06:35:40;;;;;;;6.50;3.50;;;10.20;99.90;;;;;;5071460;28;20437;-71
2021/05/31 06:38:07;;;;;;;5.20;3.30;;;10.40;99.90;;;;;;5071615;28;20525;-72
2021/05/31 06:40:34;;;;;;;6.30;2.90;;;10.50;99.90;;;;;;5071708;28;20438;-70
2021/05/31 06:43:01;;;;;;;5.37;4.10;;;10.60;99.90;;;;;;5071488;28;20446;-73
2021/05/31 06:45:30;;;;;;;17.60;8.93;;;10.70;99.90;;;;;;5071446;28;21089;-71
2021/05/31 06:48:00;;;;;;;25.67;14.40;;;10.90;99.90;;;;;;5071503;28;20445;-72
2021/05/31 06:50:29;;;;;;;27.10;15.93;;;11.00;99.90;;;;;;5071356;28;20467;-71
2021/05/31 06:52:56;;;;;;;12.47;5.97;;;11.10;99.90;;;;;;5071608;28;20455;-73
2021/05/31 06:55:24;;;;;;;6.93;3.57;;;11.20;99.90;;;;;;5071416;28;20431;-72
2021/05/31 06:57:51;;;;;;;5.77;3.37;;;11.30;99.90;;;;;;5071185;28;20948;-71
2021/05/31 07:00:20;;;;;;;6.20;3.73;;;11.50;99.90;;;;;;5069105;28;20936;-72
2021/05/31 07:02:46;;;;;;;4.80;3.70;;;11.60;99.90;;;;;;5085515;28;20433;-71
2021/05/31 07:05:15;;;;;;;3.73;3.10;;;11.70;99.90;;;;;;5089714;28;20433;-70
2021/05/31 07:07:42;;;;;;;5.30;3.90;;;11.80;99.90;;;;;;5070797;28;20468;-74
2021/05/31 07:10:10;;;;;;;5.70;3.73;;;11.90;99.90;;;;;;5070866;28;20880;-72
2021/05/31 07:12:38;;;;;;;5.73;3.30;;;12.10;99.90;;;;;;5070814;28;20932;-72
2021/05/31 07:15:06;;;;;;;7.57;4.47;;;12.10;99.90;;;;;;5070715;28;20442;-72
2021/05/31 07:17:34;;;;;;;5.10;3.90;;;12.30;99.90;;;;;;5073197;28;20505;-69
2021/05/31 07:20:02;;;;;;;4.23;3.57;;;12.40;99.90;;;;;;5090580;28;20425;-70
2021/05/31 07:22:30;;;;;;;5.97;3.07;;;12.50;99.90;;;;;;5091104;28;20510;-69
2021/05/31 07:24:57;;;;;;;4.60;2.50;;;12.60;99.90;;;;;;5090644;28;20490;-71
2021/05/31 07:27:24;;;;;;;4.63;2.73;;;12.80;99.90;;;;;;5090727;28;20444;-69
2021/05/31 07:29:51;;;;;;;6.20;2.47;;;12.90;99.90;;;;;;5090800;28;20472;-71
2021/05/31 07:32:18;;;;;;;4.67;3.63;;;13.10;99.90;;;;;;5090842;28;20471;-70
2021/05/31 07:34:47;;;;;;;7.40;2.40;;;13.20;99.90;;;;;;5090452;28;20504;-73
2021/05/31 07:37:15;;;;;;;3.10;2.33;;;13.30;99.90;;;;;;5090524;28;20447;-69
2021/05/31 07:39:47;;;;;;;2.50;2.03;;;13.40;99.90;;;;;;5090542;28;20434;-70
2021/05/31 07:42:16;;;;;;;4.80;3.13;;;13.50;99.90;;;;;;5089784;28;20452;-70
2021/05/31 07:44:46;;;;;;;7.30;2.50;;;13.50;99.90;;;;;;5085796;28;20471;-70
2021/05/31 07:47:15;;;;;;;4.40;2.80;;;13.60;99.90;;;;;;5070572;28;20855;-70
2021/05/31 07:49:42;;;;;;;6.80;2.13;;;13.80;99.90;;;;;;5070179;28;20442;-70
2021/05/31 07:52:18;;;;;;;3.57;2.13;;;13.80;99.90;;;;;;5070652;28;20535;-71
2021/05/31 07:54:49;;;;;;;2.27;2.00;;;14.00;99.90;;;;;;5079016;28;20771;-72
2021/05/31 07:57:21;;;;;;;4.10;1.90;;;14.10;99.90;;;;;;5091111;28;20464;-72
2021/05/31 07:59:48;;;;;;;2.80;1.90;;;14.10;99.90;;;;;;5090718;28;20466;-71
2021/05/31 08:02:15;;;;;;;4.87;2.37;;;14.20;99.90;;;;;;5088015;28;20468;-70
2021/05/31 08:04:42;;;;;;;3.13;1.93;;;14.20;99.80;;;;;;5070101;28;20466;-69
2021/05/31 08:07:10;;;;;;;2.60;2.40;;;14.30;98.50;;;;;;5068634;28;21090;-69
2021/05/31 08:09:37;;;;;;;4.50;2.23;;;14.40;99.90;;;;;;5072437;28;20950;-69
2021/05/31 08:12:07;;;;;;;3.43;2.07;;;14.50;99.80;;;;;;5070741;28;20422;-71
2021/05/31 08:14:33;;;;;;;3.33;1.90;;;14.70;99.90;;;;;;5070339;28;20476;-71
2021/05/31 08:17:00;;;;;;;2.80;2.20;;;14.70;98.20;;;;;;5068672;28;21149;-73
2021/05/31 08:19:30;;;;;;;3.40;1.90;;;14.80;98.50;;;;;;5074939;28;20432;-72
2021/05/31 08:21:57;;;;;;;2.47;2.27;;;14.90;99.70;;;;;;5090501;28;20482;-71
2021/05/31 08:24:24;;;;;;;4.17;2.23;;;15.00;99.50;;;;;;5077647;28;20961;-71
2021/05/31 08:26:51;;;;;;;2.33;1.83;;;15.00;96.70;;;;;;5070266;28;20453;-70
2021/05/31 08:29:21;;;;;;;4.43;2.27;;;15.00;96.00;;;;;;5070169;28;20540;-72
2021/05/31 08:31:47;;;;;;;3.30;2.20;;;15.00;97.20;;;;;;5070356;28;20469;-70
2021/05/31 08:34:14;;;;;;;3.50;2.20;;;15.00;95.70;;;;;;5070214;28;20442;-72
2021/05/31 08:36:41;;;;;;;2.30;2.10;;;15.00;97.70;;;;;;5084235;28;20457;-72
2021/05/31 08:39:09;;;;;;;2.57;1.70;;;15.10;97.20;;;;;;5090337;28;21146;-72
2021/05/31 08:41:37;;;;;;;7.10;3.23;;;15.20;96.80;;;;;;5090379;28;20783;-72
2021/05/31 08:44:04;;;;;;;3.70;2.50;;;15.20;96.70;;;;;;5082218;28;20452;-71
2021/05/31 08:46:32;;;;;;;3.90;2.43;;;15.20;96.30;;;;;;5070089;28;20457;-72
2021/05/31 08:48:59;;;;;;;2.00;1.80;;;15.30;97.20;;;;;;5070031;28;20574;-71
2021/05/31 08:51:26;;;;;;;8.47;3.47;;;15.50;96.10;;;;;;5070157;28;20461;-70
2021/05/31 08:53:53;;;;;;;2.77;2.20;;;15.60;96.20;;;;;;5073579;28;20430;-71
2021/05/31 08:56:20;;;;;;;2.10;1.50;;;15.60;96.70;;;;;;5073764;28;20442;-71
2021/05/31 08:58:47;;;;;;;4.30;2.60;;;15.70;97.00;;;;;;5073884;28;20795;-72
2021/05/31 09:01:14;;;;;;;2.93;2.33;;;15.80;97.00;;;;;;5074018;28;20865;-72
2021/05/31 09:03:42;;;;;;;2.27;2.00;;;15.90;97.50;;;;;;5073332;28;20528;-70
2021/05/31 09:06:10;;;;;;;3.30;2.70;;;16.10;95.50;;;;;;5073333;28;20938;-71
2021/05/31 09:08:39;;;;;;;2.60;1.83;;;16.00;94.90;;;;;;5073779;28;20438;-71
2021/05/31 09:11:07;;;;;;;4.60;2.80;;;16.00;94.20;;;;;;5073261;28;20534;-70
2021/05/31 09:13:37;;;;;;;3.40;1.97;;;16.10;93.70;;;;;;5073512;28;20462;-70
2021/05/31 09:16:13;;;;;;;5.40;2.97;;;16.10;92.60;;;;;;5073549;28;21007;-69
2021/05/31 09:18:43;;;;;;;5.97;2.07;;;16.10;93.10;;;;;;5073610;28;20779;-70
2021/05/31 09:21:16;;;;;;;2.13;1.70;;;16.20;93.40;;;;;;5073181;28;20436;-70
2021/05/31 09:23:44;;;;;;;2.97;2.40;;;16.30;92.00;;;;;;5072980;28;20444;-70
2021/05/31 09:26:11;;;;;;;2.47;2.03;;;16.40;94.00;;;;;;5073004;28;20456;-70
2021/05/31 09:28:38;;;;;;;2.20;1.97;;;16.50;93.10;;;;;;5073077;28;20512;-71
2021/05/31 09:31:22;;;;;;;4.27;3.30;;;16.50;92.50;;;;;;5073146;28;20476;-71
2021/05/31 09:34:00;;;;;;;5.17;2.67;;;16.60;92.20;;;;;;5072950;28;20442;-71
2021/05/31 09:36:29;;;;;;;6.03;2.30;;;16.60;90.70;;;;;;5072715;28;20449;-71
2021/05/31 09:38:57;;;;;;;2.60;1.93;;;16.70;91.80;;;;;;5073019;28;20418;-70
2021/05/31 09:41:29;;;;;;;4.13;2.30;;;16.80;91.80;;;;;;5073346;28;20434;-70
2021/05/31 09:43:58;;;;;;;14.23;2.00;;;16.80;90.50;;;;;;5072849;28;20418;-70
2021/05/31 09:46:39;;;;;;;3.03;2.37;;;16.90;91.60;;;;;;5072778;28;20576;-71
2021/05/31 09:49:14;;;;;;;3.10;2.63;;;16.90;92.10;;;;;;5072827;28;20443;-70
2021/05/31 09:52:00;;;;;;;8.33;2.30;;;16.80;91.30;;;;;;5072292;28;20530;-70
2021/05/31 09:54:32;;;;;;;3.80;2.47;;;16.80;92.70;;;;;;5072475;28;20437;-70
2021/05/31 09:56:59;;;;;;;2.90;2.10;;;17.10;93.30;;;;;;5072497;28;20848;-70
2021/05/31 09:59:28;;;;;;;4.50;2.30;;;17.30;91.50;;;;;;5072514;28;20453;-70
2021/05/31 10:01:57;;;;;;;3.30;2.13;;;17.40;91.90;;;;;;5072735;28;20513;-71
2021/05/31 10:04:35;;;;;;;2.57;1.87;;;17.40;90.70;;;;;;5071832;28;20440;-71
2021/05/31 10:07:15;;;;;;;5.10;3.23;;;17.40;90.30;;;;;;5072052;28;20472;-69
2021/05/31 10:09:43;;;;;;;2.63;1.77;;;17.30;90.40;;;;;;5072261;28;20434;-71
2021/05/31 10:12:11;;;;;;;3.60;2.07;;;17.40;92.30;;;;;;5072246;28;20539;-70
2021/05/31 10:14:40;;;;;;;4.67;1.80;;;17.50;90.40;;;;;;5071899;28;20430;-71
2021/05/31 10:17:07;;;;;;;2.60;2.30;;;17.60;91.80;;;;;;5072285;28;20515;-70
2021/05/31 10:19:34;;;;;;;4.70;2.10;;;17.80;90.60;;;;;;5072306;28;20944;-69
2021/05/31 10:22:03;;;;;;;3.23;2.07;;;17.80;87.30;;;;;;5071881;28;20475;-69
2021/05/31 10:24:30;;;;;;;3.63;2.20;;;17.80;90.50;;;;;;5071851;28;20435;-70
2021/05/31 10:26:57;;;;;;;2.10;1.60;;;17.90;91.10;;;;;;5072721;28;20472;-69
2021/05/31 10:29:25;;;;;;;3.37;1.83;;;18.00;88.40;;;;;;5071895;28;20426;-71
2021/05/31 10:31:51;;;;;;;2.50;2.00;;;18.10;90.20;;;;;;5071880;28;20827;-70
2021/05/31 10:34:21;;;;;;;4.03;2.40;;;18.10;86.40;;;;;;5071685;28;20442;-69
2021/05/31 10:36:51;;;;;;;2.63;2.00;;;18.10;86.70;;;;;;5071405;28;20482;-71
2021/05/31 10:39:27;;;;;;;3.23;1.90;;;18.10;89.60;;;;;;5071608;28;20533;-70
2021/05/31 10:42:05;;;;;;;4.97;2.30;;;18.20;86.80;;;;;;5071717;28;21021;-70
2021/05/31 10:44:33;;;;;;;2.73;1.70;;;18.40;88.90;;;;;;5071394;28;20445;-69
2021/05/31 10:47:07;;;;;;;1.90;1.70;;;18.60;86.70;;;;;;5071535;28;20438;-70
2021/05/31 10:49:33;;;;;;;2.50;2.13;;;18.70;85.80;;;;;;5071821;28;20795;-70
2021/05/31 10:52:00;;;;;;;5.33;2.07;;;18.70;87.10;;;;;;5071228;28;20599;-70
2021/05/31 10:54:35;;;;;;;2.73;2.07;;;18.70;80.20;;;;;;5071247;28;20438;-71
2021/05/31 10:57:07;;;;;;;3.17;2.20;;;18.60;83.70;;;;;;5071408;28;20449;-71
2021/05/31 10:59:34;;;;;;;2.23;1.53;;;18.60;86.10;;;;;;5071333;28;20483;-70
2021/05/31 11:02:00;;;;;;;1.83;1.40;;;18.80;85.80;;;;;;5071618;28;20442;-69
2021/05/31 11:04:29;;;;;;;4.57;2.27;;;18.90;85.40;;;;;;5071298;28;20428;-71
2021/05/31 11:07:01;;;;;;;3.23;1.83;;;19.00;83.20;;;;;;5070867;28;20476;-70
2021/05/31 11:09:33;;;;;;;4.80;1.97;;;19.20;84.10;;;;;;5071502;28;20430;-70
2021/05/31 11:12:02;;;;;;;2.23;1.87;;;19.40;85.10;;;;;;5071032;28;20577;-70
2021/05/31 11:14:33;;;;;;;4.77;2.43;;;19.50;80.00;;;;;;5070993;28;20850;-70
2021/05/31 11:17:03;;;;;;;4.70;2.13;;;19.60;77.40;;;;;;5070652;28;20450;-70
2021/05/31 11:19:35;;;;;;;2.90;2.00;;;19.60;78.00;;;;;;5071123;28;20442;-69
2021/05/31 11:22:13;;;;;;;4.70;2.17;;;19.60;79.30;;;;;;5070890;28;20482;-70
2021/05/31 11:24:41;;;;;;;4.40;2.47;;;19.70;80.70;;;;;;5070937;28;20541;-69
2021/05/31 11:27:09;;;;;;;3.13;1.93;;;19.90;81.70;;;;;;5070805;28;20488;-69
2021/05/31 11:29:37;;;;;;;3.23;2.30;;;19.90;79.60;;;;;;5071073;28;20430;-70
2021/05/31 11:32:04;;;;;;;4.20;2.00;;;19.90;82.10;;;;;;5070848;28;20477;-69
2021/05/31 11:34:32;;;;;;;2.90;2.27;;;19.90;78.90;;;;;;5070826;28;20483;-69
2021/05/31 11:36:59;;;;;;;3.37;2.93;;;20.00;82.10;;;;;;5070490;28;20475;-69
2021/05/31 11:39:32;;;;;;;2.53;1.50;;;20.10;77.10;;;;;;5070792;28;20450;-71
2021/05/31 11:42:01;;;;;;;3.40;1.90;;;20.20;73.50;;;;;;5070743;28;20437;-70
2021/05/31 11:44:29;;;;;;;8.60;3.00;;;20.30;74.40;;;;;;5070767;28;20895;-70
2021/05/31 11:46:57;;;;;;;2.47;2.00;;;20.30;76.80;;;;;;5070785;28;20458;-70
2021/05/31 11:49:25;;;;;;;2.80;2.30;;;20.40;81.00;;;;;;5070678;28;20434;-69
2021/05/31 11:52:00;;;;;;;2.40;1.80;;;20.50;80.30;;;;;;5070405;28;20469;-69
2021/05/31 11:54:28;;;;;;;3.23;2.10;;;20.40;77.00;;;;;;5070845;28;20429;-71
2021/05/31 11:57:00;;;;;;;2.00;1.80;;;20.30;75.40;;;;;;5070534;28;20461;-70
2021/05/31 11:59:32;;;;;;;3.70;2.10;;;20.40;76.70;;;;;;5070748;28;20799;-69
2021/05/31 12:01:59;;;;;;;3.20;2.27;;;20.50;78.30;;;;;;5070587;28;20950;-68
2021/05/31 12:04:26;;;;;;;2.87;1.93;;;20.60;77.70;;;;;;5070751;28;20448;-68
2021/05/31 12:07:00;;;;;;;3.63;2.43;;;20.70;81.00;;;;;;5070263;28;20453;-68
2021/05/31 12:09:26;;;;;;;2.43;2.20;;;20.90;81.50;;;;;;5070570;28;20430;-68
2021/05/31 12:11:54;;;;;;;8.10;2.63;;;21.00;81.00;;;;;;5070377;28;20461;-69
2021/05/31 12:14:24;;;;;;;3.30;1.97;;;21.10;77.70;;;;;;5070367;28;20931;-68
2021/05/31 12:16:59;;;;;;;3.23;2.03;;;21.10;77.40;;;;;;5070444;28;20803;-68
2021/05/31 12:19:26;;;;;;;3.50;2.30;;;21.00;76.60;;;;;;5070373;28;20520;-67
2021/05/31 12:21:56;;;;;;;2.23;1.93;;;21.10;80.10;;;;;;5070132;28;20455;-67
2021/05/31 12:24:27;;;;;;;11.57;2.50;;;21.40;79.20;;;;;;5070243;28;20447;-68
2021/05/31 12:26:56;;;;;;;2.40;1.73;;;21.50;83.10;;;;;;5071444;28;20448;-67
2021/05/31 12:29:33;;;;;;;3.20;2.17;;;21.50;80.60;;;;;;5074354;28;20422;-68
2021/05/31 12:32:02;;;;;;;3.77;2.17;;;21.60;78.10;;;;;;5074152;28;20850;-68
2021/05/31 12:34:29;;;;;;;2.67;1.93;;;21.70;76.00;;;;;;5074054;28;20430;-68
2021/05/31 12:36:56;;;;;;;3.50;2.20;;;21.80;75.60;;;;;;5073831;28;20449;-68
2021/05/31 12:39:23;;;;;;;3.13;2.40;;;21.70;76.10;;;;;;5074061;28;20426;-68
2021/05/31 12:41:50;;;;;;;5.13;2.23;;;21.90;74.90;;;;;;5074034;28;20452;-68
2021/05/31 12:44:17;;;;;;;3.63;1.90;;;21.90;79.40;;;;;;5073962;28;20433;-69
2021/05/31 12:46:46;;;;;;;3.63;2.33;;;22.10;74.00;;;;;;5074246;28;21031;-68
2021/05/31 12:49:15;;;;;;;3.53;1.97;;;22.30;72.40;;;;;;5074101;28;20433;-68
2021/05/31 12:51:52;;;;;;;1.67;1.57;;;22.30;72.40;;;;;;5073428;28;20470;-69
2021/05/31 12:54:19;;;;;;;4.20;1.97;;;22.40;74.90;;;;;;5073880;28;20480;-69
2021/05/31 12:56:46;;;;;;;3.30;1.63;;;22.60;73.80;;;;;;5073874;28;20510;-68
2021/05/31 12:59:13;;;;;;;5.20;2.37;;;22.80;72.90;;;;;;5073946;28;20441;-69
2021/05/31 13:01:42;;;;;;;3.10;1.73;;;22.90;71.90;;;;;;5073727;28;20432;-68
2021/05/31 13:04:11;;;;;;;3.13;1.80;;;23.00;70.00;;;;;;5073536;28;20444;-69